Terminal Aerodrome Forecast
Issued by NWS

Home | Current Version | Previous Version | Text Only | Print | Product List | Glossary On
Versions: 1 2 3 4 5 6 7 8 9 10 11 12 13 14 15 16 17 18 19 20 21 22
000
FTUS41 KCAR 011736
TAFHUL
TAF
KHUL 011736Z 0118/0218 16009KT P6SM VCSH OVC060
     FM012200 15011KT 6SM -SHRA OVC025
     FM020000 15011KT P6SM OVC015
     FM020300 17010KT P6SM OVC008
     FM020800 20008KT P6SM BKN015
     FM021000 21008KT P6SM BKN040
     FM021600 23010KT P6SM SCT040=

USA.gov is the U.S. government's official web portal to all federal, state and local government web resources and services.